Terminal Aerodrome Forecast
Issued by NWS Mt. Holly, NJ

Home | Current Version | Previous Version | Text Only | Print | Product List | Glossary On
Versions: 1 2 3 4 5 6 7 8 9 10 11 12 13 14 15 16 17 18 19 20 21 22 23 24 25 26 27 28 29 30 31 32
000
FTUS41 KPHI 232334
TAFPHL
TAF
KPHL 232334Z 2400/2506 VRB03KT 2SM -DZ BR BKN005 OVC012
     FM240400 VRB03KT 2SM -DZ BR OVC003
     FM241300 VRB03KT 4SM BR OVC008
      TEMPO 2415/2416 SCT008 OVC025
     FM241600 35004KT P6SM OVC035
     FM241900 01006KT P6SM -SHRA OVC035
     FM242300 04006KT P6SM -RA OVC025
     FM250300 06006KT 4SM -RA BR OVC015=

USA.gov is the U.S. government's official web portal to all federal, state and local government web resources and services.